• Join FlightAware (Why Join?)
  • Login
  • US Flag 
01:14PM EDT


 

Airport Tracker/Info


-or-


 

Live Flight TrackerFlight Track Log ✈ SKW6492 ✈ 04-Jul-2013 ✈ KDEN - KCOD

Flight Track Log - Related Links

Times and Time Zones

All times are in EDT time to prevent confusion due to time zone crossing. See the SKW6492 flight status page for this flight to view local times or setup timezone preferences in your user account.

Time Position Orientation Groundspeed Altitude Reporting Facility
EDT Latitude Longitude Course Direction KTS MPH feet Rate Location/Type
09:41PM 39.9333 -104.6833 346° North 205 236 6,600  Level Denver TRACON
09:42PM 39.9833 -104.6667 14° North 252 290 8,000 1,500 Climbing Denver TRACON
09:43PM 40.1593 -104.7695 347° North  Level FlightAware Approximate
09:43PM 40.0667 -104.6667 360° North 295 339 9,500  Level Denver TRACON
09:44PM 40.2633 -104.8006 347° North  Level FlightAware Approximate
09:44PM 40.1500 -104.6833 351° North 315 362 11,600  Level Denver TRACON
09:45PM 40.3669 -104.8334 346° North  Level FlightAware Approximate
09:45PM 40.2333 -104.7000 351° North 324 373 13,200  Level Denver TRACON
09:46PM 40.4702 -104.8678 346° North  Level FlightAware Approximate
09:46PM 40.3158 -104.7269 346° North 328 377 15,100  Level Denver Center
09:47PM 40.4064 -104.7503 349° North 331 381 17,200 1,680 Climbing Denver Center
09:48PM 40.4944 -104.7756 348° North 327 376 18,600 1,440 Climbing Denver Center
09:49PM 40.5867 -104.7983 349° North 337 388 20,200 1,140 Climbing Denver Center
09:50PM 40.6844 -104.8286 347° North 340 391 21,000 840 Climbing Denver Center
09:51PM 40.7769 -104.8503 350° North 339 390 22,000 900 Climbing Denver Center
09:52PM 40.8719 -104.8925 341° North 352 405 22,900 780 Climbing Denver Center
09:53PM 40.9689 -104.9411 339° North 366 421 23,600 780 Climbing Denver Center
09:54PM 41.0667 -104.9900 339° North 374 430 24,600 1,080 Climbing Denver Center
09:55PM 41.1767 -105.0442 340° North 377 434 25,800 1,020 Climbing Denver Center
09:56PM 41.2694 -105.0897 340° North 372 428 26,700 780 Climbing Denver Center
09:57PM 41.3622 -105.1361 339° North 372 428 27,400 660 Climbing Denver Center
09:58PM 41.4731 -105.1911 340° North 377 434 28,100 540 Climbing Denver Center
09:59PM 41.5678 -105.2411 338° Northwest 380 437 28,600 480 Climbing Denver Center
10:00PM 41.6494 -105.3317 320° Northwest 392 451 29,100 480 Climbing Denver Center
10:01PM 41.7444 -105.4322 322° Northwest 390 449 29,600 420 Climbing Denver Center
10:02PM 41.8261 -105.5206 321° Northwest 392 451 30,000 180 Climbing Denver Center
10:03PM 41.9100 -105.6119 321° Northwest 400 460 30,000  Level Denver Center
10:04PM 42.0100 -105.7197 321° Northwest 408 470 30,000  Level Denver Center
10:05PM 42.0958 -105.8144 321° Northwest 416 479 30,000  Level Denver Center
10:06PM 42.1778 -105.9067 320° Northwest 407 468 30,000  Level Denver Center
10:07PM 42.2775 -106.0161 321° Northwest 412 474 30,000  Level Denver Center
10:08PM 42.3628 -106.1108 321° Northwest 413 475 30,000  Level Denver Center
10:09PM 42.4483 -106.2067 320° Northwest 416 479 30,000  Level Denver Center
10:10PM 42.5472 -106.3178 320° Northwest 413 475 30,000  Level Denver Center
10:11PM 42.6314 -106.4128 320° Northwest 411 473 30,000  Level Denver Center
10:12PM 42.7153 -106.5089 320° Northwest 411 473 30,000  Level Denver Center
10:13PM 42.7903 -106.6508 306° West 416 479 30,000  Level Denver Center
10:14PM 42.8539 -106.7736 305° West 414 476 30,000  Level Denver Center
10:15PM 42.9231 -106.9222 302° West 414 476 30,000  Level Salt Lake Center
10:16PM 42.9775 -107.0264 306° West 407 468 30,000  Level Salt Lake Center
10:17PM 43.0475 -107.1672 304° West 409 471 30,000  Level Denver Center
10:18PM 43.1067 -107.2850 305° West 406 467 30,000  Level Denver Center
10:19PM 43.1969 -107.4203 312° West 411 473 30,000  Level Denver Center
10:20PM 43.2864 -107.5147 322° Northwest 409 471 30,000 -120 Level Denver Center
10:21PM 43.3756 -107.6114 322° Northwest 408 470 29,800 -1,260 Descending Salt Lake Center
10:22PM 43.4703 -107.7128 322° Northwest 429 494 27,500 -1,980 Descending Salt Lake Center
10:23PM 43.5681 -107.8153 323° Northwest 440 506 25,800 -1,680 Descending Salt Lake Center
10:24PM 43.6633 -107.9181 322° Northwest 436 502 24,100 -1,680 Descending Salt Lake Center
10:25PM 43.7572 -108.0197 322° Northwest 430 495 22,400 -1,680 Descending Salt Lake Center
10:26PM 43.8489 -108.1197 322° Northwest 422 486 20,700 -1,800 Descending Salt Lake Center
10:27PM 43.9358 -108.2131 322° Northwest 398 458 18,800 -2,100 Descending Salt Lake Center
10:28PM 44.0156 -108.3017 321° Northwest 382 440 16,500 -2,220 Descending Salt Lake Center
10:29PM 44.0917 -108.3844 322° Northwest 366 421 14,300 -2,220 Descending Salt Lake Center
10:30PM 44.1647 -108.4636 322° Northwest 352 405 12,100 -1,200 Descending Salt Lake Center
10:31PM 44.2322 -108.5203 329° Northwest 321 369 12,000 -600 Descending Salt Lake Center
10:32PM 44.3044 -108.5519 343° North 287 330 11,000 -1,140 Descending Salt Lake Center
10:33PM 44.3875 -108.5883 343° North 270 311 9,700 -1,020 Descending Salt Lake Center
10:34PM 44.4536 -108.6167 343° North 261 300 9,000 -360 Descending Salt Lake Center
10:36PM 44.5164 -108.6433 343° North 249 287 9,000  Level Salt Lake Center
10:37PM 44.5756 -108.6719 341° North 238 274 9,000 -540 Level Salt Lake Center
10:38PM 44.6236 -108.7233 323° Northwest 226 260 8,000 -600 Descending Salt Lake Center
10:39PM 44.6508 -108.7806 304° West 219 252 7,900 -300 Descending Salt Lake Center
10:40PM 44.6214 -108.8478 238° Southwest 210 242 7,500 -420 Descending Salt Lake Center